createdAt,value
2018-02-18T00:00:32.473Z,0
2018-02-18T00:01:32.495Z,0
2018-02-18T00:03:32.275Z,0
2018-02-18T00:04:32.796Z,0
2018-02-18T00:06:47.489Z,0
2018-02-18T00:07:47.499Z,0
2018-02-18T00:08:32.849Z,0
2018-02-18T00:09:32.859Z,0
2018-02-18T00:10:32.879Z,0
2018-02-18T00:11:32.891Z,0
2018-02-18T00:12:32.909Z,0
2018-02-18T00:13:32.918Z,0
2018-02-18T00:14:32.936Z,0
2018-02-18T00:15:32.948Z,0
2018-02-18T00:16:33.020Z,0
2018-02-18T00:17:32.981Z,0
2018-02-18T00:18:32.994Z,0
2018-02-18T00:19:33.006Z,0
2018-02-18T00:20:33.028Z,0
2018-02-18T00:21:47.709Z,0
2018-02-18T00:22:33.049Z,0
2018-02-18T00:23:47.736Z,0
2018-02-18T00:24:47.751Z,0
2018-02-18T00:25:47.764Z,0
2018-02-18T00:26:32.861Z,0
2018-02-18T00:27:33.124Z,0
2018-02-18T00:28:33.143Z,0
2018-02-18T00:29:32.906Z,0
2018-02-18T00:30:33.175Z,0
2018-02-18T00:31:32.931Z,0
2018-02-18T00:33:32.963Z,0
2018-02-18T00:34:33.229Z,0
2018-02-18T00:35:33.249Z,0
2018-02-18T00:36:33.257Z,0
2018-02-18T00:37:47.945Z,0
2018-02-18T00:38:48.063Z,0
2018-02-18T00:39:47.971Z,0
2018-02-18T00:40:33.316Z,0
2018-02-18T00:41:33.333Z,0
2018-02-18T00:42:33.345Z,0
2018-02-18T00:43:33.363Z,0
2018-02-18T00:44:33.383Z,0
2018-02-18T00:45:33.395Z,0
2018-02-18T00:46:33.404Z,0
2018-02-18T00:47:33.417Z,0
2018-02-18T00:48:33.431Z,0
2018-02-18T00:49:33.449Z,0
2018-02-18T00:51:47.899Z,0
2018-02-18T00:53:33.506Z,0
2018-02-18T00:54:47.935Z,0
2018-02-18T00:55:48.203Z,0
2018-02-18T00:56:48.219Z,0
2018-02-18T00:57:33.313Z,0
2018-02-18T00:58:33.582Z,0
2018-02-18T00:59:33.592Z,0
2018-02-18T01:00:33.609Z,0
2018-02-18T01:01:33.625Z,0
2018-02-18T01:02:33.640Z,0
2018-02-18T01:04:33.677Z,0
2018-02-18T01:05:33.685Z,0
2018-02-18T01:06:33.445Z,0
2018-02-18T01:08:33.730Z,0
2018-02-18T01:09:33.747Z,0
2018-02-18T01:10:48.423Z,0
2018-02-18T01:11:33.520Z,0
2018-02-18T01:12:33.785Z,0
2018-02-18T01:13:33.546Z,0
2018-02-18T01:14:33.819Z,0
2018-02-18T01:15:33.827Z,0
2018-02-18T01:16:33.842Z,0
2018-02-18T01:17:33.852Z,0
2018-02-18T01:18:33.872Z,0
2018-02-18T01:19:33.882Z,0
2018-02-18T01:20:33.902Z,0
2018-02-18T01:21:33.919Z,0
2018-02-18T01:22:33.674Z,0
2018-02-18T01:23:48.632Z,0
2018-02-18T01:24:33.705Z,0
2018-02-18T01:25:33.979Z,0
2018-02-18T01:26:48.655Z,0
2018-02-18T01:27:48.674Z,0
2018-02-18T01:28:48.683Z,0
2018-02-18T01:29:48.697Z,0
2018-02-18T01:30:34.045Z,0
2018-02-18T01:31:34.060Z,0
2018-02-18T01:32:34.175Z,0
2018-02-18T01:33:34.085Z,0
2018-02-18T01:34:34.107Z,0
2018-02-18T01:35:34.123Z,0
2018-02-18T01:36:34.141Z,0
2018-02-18T01:37:34.143Z,0
2018-02-18T01:38:48.834Z,0
2018-02-18T01:39:34.173Z,0
2018-02-18T01:40:34.193Z,0
2018-02-18T01:41:48.876Z,0
2018-02-18T01:42:48.886Z,0
2018-02-18T01:43:34.240Z,0
2018-02-18T01:44:34.248Z,0
2018-02-18T01:45:34.308Z,0
2018-02-18T01:46:34.282Z,0
2018-02-18T01:47:48.955Z,0
2018-02-18T01:48:34.307Z,0
2018-02-18T01:49:34.330Z,0
2018-02-18T01:50:34.336Z,0
2018-02-18T01:51:34.354Z,0
2018-02-18T01:52:34.365Z,0
2018-02-18T01:54:48.907Z,0
2018-02-18T01:55:34.418Z,0
2018-02-18T01:56:34.424Z,0
2018-02-18T01:57:34.437Z,0
2018-02-18T01:58:49.118Z,0
2018-02-18T01:59:34.462Z,0
2018-02-18T02:00:34.230Z,0
2018-02-18T02:01:34.501Z,0
2018-02-18T02:02:34.517Z,0
2018-02-18T02:03:34.531Z,0
2018-02-18T02:04:34.541Z,0
2018-02-18T02:05:34.557Z,0
2018-02-18T02:06:34.576Z,0
2018-02-18T02:07:34.586Z,0
2018-02-18T02:08:34.598Z,0
2018-02-18T02:09:34.612Z,0
2018-02-18T02:11:34.648Z,0
2018-02-18T02:12:34.659Z,0
2018-02-18T02:13:49.339Z,0
2018-02-18T02:15:49.368Z,0
2018-02-18T02:16:34.714Z,0
2018-02-18T02:17:34.731Z,0
2018-02-18T02:18:34.747Z,0
2018-02-18T02:19:34.759Z,0
2018-02-18T02:20:49.450Z,0
2018-02-18T02:21:34.791Z,0
2018-02-18T02:22:34.801Z,0
2018-02-18T02:23:34.833Z,0
2018-02-18T02:24:34.830Z,0
2018-02-18T02:25:49.263Z,0
2018-02-18T02:26:34.872Z,0
2018-02-18T02:27:34.875Z,0
2018-02-18T02:29:49.316Z,0
2018-02-18T02:30:34.932Z,0
2018-02-18T02:31:34.688Z,0
2018-02-18T02:32:34.973Z,0
2018-02-18T02:33:34.983Z,0
2018-02-18T02:34:34.999Z,0
2018-02-18T02:35:34.998Z,0
2018-02-18T02:36:35.010Z,0
2018-02-18T02:37:34.774Z,0
2018-02-18T02:38:35.038Z,0
2018-02-18T02:39:49.728Z,0
2018-02-18T02:40:35.067Z,0
2018-02-18T02:42:35.091Z,0
2018-02-18T02:43:35.118Z,0
2018-02-18T02:44:49.798Z,0
2018-02-18T02:45:49.293Z,0
2018-02-18T02:46:35.162Z,0
2018-02-18T02:47:35.186Z,0
2018-02-18T02:48:49.845Z,0
2018-02-18T02:50:35.219Z,0
2018-02-18T02:51:35.247Z,0
2018-02-18T02:53:35.258Z,0
2018-02-18T02:54:35.013Z,0
2018-02-18T02:55:35.280Z,0
2018-02-18T02:56:35.045Z,0
2018-02-18T02:57:35.323Z,0
2018-02-18T02:58:49.993Z,0
2018-02-18T03:00:35.357Z,0
2018-02-18T03:01:49.781Z,0
2018-02-18T03:02:35.384Z,0
2018-02-18T03:03:35.402Z,0
2018-02-18T03:04:35.419Z,0
2018-02-18T03:05:35.427Z,0
2018-02-18T03:06:50.103Z,0
2018-02-18T03:07:35.453Z,0
2018-02-18T03:08:35.467Z,0
2018-02-18T03:10:35.499Z,0
2018-02-18T03:11:35.509Z,0
2018-02-18T03:13:35.536Z,0
2018-02-18T03:14:35.301Z,0
2018-02-18T03:15:35.584Z,0
2018-02-18T03:16:50.251Z,0
2018-02-18T03:17:50.263Z,0
2018-02-18T03:18:35.608Z,0
2018-02-18T03:19:35.628Z,0
2018-02-18T03:20:35.640Z,0
2018-02-18T03:21:35.405Z,0
2018-02-18T03:22:35.674Z,0
2018-02-18T03:23:35.683Z,0
2018-02-18T03:24:35.705Z,0
2018-02-18T03:25:35.714Z,0
2018-02-18T03:26:35.473Z,0
2018-02-18T03:27:35.746Z,0
2018-02-18T03:28:35.753Z,0
2018-02-18T03:29:35.772Z,0
2018-02-18T03:30:35.808Z,0
2018-02-18T03:31:35.548Z,0
2018-02-18T03:32:35.822Z,0
2018-02-18T03:33:50.241Z,0
2018-02-18T03:34:35.841Z,0
2018-02-18T03:35:35.863Z,0
2018-02-18T03:36:35.876Z,0
2018-02-18T03:37:50.549Z,0
2018-02-18T03:38:50.564Z,0
2018-02-18T03:39:35.914Z,0
2018-02-18T03:40:35.938Z,0
2018-02-18T03:41:35.947Z,0
2018-02-18T03:42:35.699Z,0
2018-02-18T03:43:35.973Z,0
2018-02-18T03:44:35.985Z,0
2018-02-18T03:45:35.999Z,0
2018-02-18T03:46:50.686Z,0
2018-02-18T03:47:36.033Z,0
2018-02-18T03:48:50.715Z,0
2018-02-18T03:49:35.805Z,0
2018-02-18T03:50:35.816Z,0
2018-02-18T03:51:35.829Z,0
2018-02-18T03:53:36.116Z,0
2018-02-18T03:54:36.139Z,0
2018-02-18T03:55:36.142Z,0
2018-02-18T03:56:36.162Z,0
2018-02-18T03:57:36.173Z,0
2018-02-18T03:58:36.183Z,0
2018-02-18T03:59:36.205Z,0
2018-02-18T04:00:36.213Z,0
2018-02-18T04:01:36.229Z,0
2018-02-18T04:02:36.246Z,0
2018-02-18T04:03:50.929Z,0
2018-02-18T04:04:50.942Z,0
2018-02-18T04:05:50.958Z,0
2018-02-18T04:06:36.328Z,0
2018-02-18T04:07:36.417Z,0
2018-02-18T04:08:36.336Z,0
2018-02-18T04:09:36.356Z,0
2018-02-18T04:10:36.362Z,0
2018-02-18T04:11:36.376Z,0
2018-02-18T04:12:36.392Z,0
2018-02-18T04:13:36.150Z,0
2018-02-18T04:14:36.420Z,0
2018-02-18T04:15:36.446Z,0
2018-02-18T04:16:36.444Z,0
2018-02-18T04:17:36.208Z,0
2018-02-18T04:18:36.484Z,0
2018-02-18T04:19:36.491Z,0
2018-02-18T04:20:51.176Z,0
2018-02-18T04:21:36.529Z,0
2018-02-18T04:22:51.200Z,0
2018-02-18T04:23:36.553Z,0
2018-02-18T04:24:36.560Z,0
2018-02-18T04:25:36.580Z,0
2018-02-18T04:26:36.388Z,0
2018-02-18T04:27:36.612Z,0
2018-02-18T04:28:36.623Z,0
2018-02-18T04:29:36.636Z,0
2018-02-18T04:30:36.649Z,0
2018-02-18T04:31:36.408Z,0
2018-02-18T04:32:36.722Z,0
2018-02-18T04:33:36.436Z,0
2018-02-18T04:34:36.711Z,0
2018-02-18T04:35:36.726Z,0
2018-02-18T04:36:51.404Z,0
2018-02-18T04:37:51.420Z,0
2018-02-18T04:38:36.764Z,0
2018-02-18T04:39:36.782Z,0
2018-02-18T04:40:36.796Z,0
2018-02-18T04:41:36.817Z,0
2018-02-18T04:42:36.822Z,0
2018-02-18T04:43:36.836Z,0
2018-02-18T04:44:36.598Z,0
2018-02-18T04:45:36.614Z,0
2018-02-18T04:46:36.884Z,0
2018-02-18T04:49:36.923Z,0
2018-02-18T04:50:36.942Z,0
2018-02-18T04:51:36.958Z,0
2018-02-18T04:52:51.638Z,0
2018-02-18T04:53:51.649Z,0
2018-02-18T04:54:36.743Z,0
2018-02-18T04:55:36.754Z,0
2018-02-18T04:56:37.031Z,0
2018-02-18T04:57:36.790Z,0
2018-02-18T04:58:36.800Z,0
2018-02-18T04:59:36.813Z,0
2018-02-18T05:00:37.084Z,0
2018-02-18T05:01:37.100Z,0
2018-02-18T05:02:36.858Z,0
2018-02-18T05:06:37.169Z,0
2018-02-18T05:07:51.855Z,0
2018-02-18T05:08:51.868Z,0
2018-02-18T05:09:37.219Z,0
2018-02-18T05:10:51.382Z,0
2018-02-18T05:11:51.907Z,0
2018-02-18T05:12:37.259Z,0
2018-02-18T05:13:37.272Z,0
2018-02-18T05:14:37.290Z,0
2018-02-18T05:15:37.043Z,0
2018-02-18T05:16:37.057Z,0
2018-02-18T05:17:37.334Z,0
2018-02-18T05:18:37.341Z,0
2018-02-18T05:19:37.351Z,0
2018-02-18T05:20:37.372Z,0
2018-02-18T05:21:37.393Z,0
2018-02-18T05:22:37.405Z,0
2018-02-18T05:23:52.082Z,0
2018-02-18T05:24:37.429Z,0
2018-02-18T05:25:37.442Z,0
2018-02-18T05:27:37.482Z,0
2018-02-18T05:28:37.487Z,0
2018-02-18T05:29:37.501Z,0
2018-02-18T05:30:37.517Z,0
2018-02-18T05:31:37.536Z,0
2018-02-18T05:32:37.541Z,0
2018-02-18T05:33:37.561Z,0
2018-02-18T05:34:37.316Z,0
2018-02-18T05:36:37.343Z,0
2018-02-18T05:37:37.628Z,0
2018-02-18T05:38:37.647Z,0
2018-02-18T05:39:52.313Z,0
2018-02-18T05:40:37.398Z,0
2018-02-18T05:41:37.677Z,0
2018-02-18T05:42:37.435Z,0
2018-02-18T05:43:37.704Z,0
2018-02-18T05:44:37.464Z,0
2018-02-18T05:45:37.733Z,0
2018-02-18T05:46:37.742Z,0
2018-02-18T05:47:37.758Z,0
2018-02-18T05:48:37.779Z,0
2018-02-18T05:49:37.792Z,0
2018-02-18T05:51:37.810Z,0
2018-02-18T05:52:37.833Z,4
2018-02-18T05:53:37.859Z,0
2018-02-18T05:54:37.865Z,0
2018-02-18T05:55:52.544Z,4
2018-02-18T05:56:37.888Z,4
2018-02-18T05:57:52.574Z,4
2018-02-18T05:58:37.922Z,4
2018-02-18T05:59:37.938Z,4
2018-02-18T06:00:37.949Z,4
2018-02-18T06:01:37.958Z,4
2018-02-18T06:02:37.978Z,8
2018-02-18T06:03:37.994Z,8
2018-02-18T06:04:37.754Z,8
2018-02-18T06:05:38.017Z,12
2018-02-18T06:06:38.047Z,12
2018-02-18T06:07:38.053Z,12
2018-02-18T06:08:38.098Z,12
2018-02-18T06:09:38.083Z,20
2018-02-18T06:10:52.760Z,20
2018-02-18T06:11:52.780Z,24
2018-02-18T06:12:52.790Z,20
2018-02-18T06:13:38.150Z,28
2018-02-18T06:14:38.166Z,28
2018-02-18T06:15:38.162Z,32
2018-02-18T06:16:38.178Z,32
2018-02-18T06:17:37.989Z,36
2018-02-18T06:18:38.208Z,40
2018-02-18T06:19:38.224Z,44
2018-02-18T06:20:38.245Z,48
2018-02-18T06:21:38.246Z,52
2018-02-18T06:22:38.267Z,52
2018-02-18T06:23:38.290Z,60
2018-02-18T06:24:52.967Z,64
2018-02-18T06:26:38.324Z,72
2018-02-18T06:27:53.008Z,84
2018-02-18T06:28:53.022Z,88
2018-02-18T06:29:38.373Z,92
2018-02-18T06:31:38.395Z,108
2018-02-18T06:32:38.422Z,112
2018-02-18T06:33:38.429Z,120
2018-02-18T06:34:38.186Z,128
2018-02-18T06:35:38.456Z,140
2018-02-18T06:36:37.959Z,148
2018-02-18T06:37:38.485Z,156
2018-02-18T06:38:38.504Z,164
2018-02-18T06:39:38.511Z,172
2018-02-18T06:40:38.531Z,180
2018-02-18T06:41:38.286Z,192
2018-02-18T06:43:53.240Z,212
2018-02-18T06:44:38.584Z,216
2018-02-18T06:45:38.344Z,228
2018-02-18T06:46:38.619Z,236
2018-02-18T06:47:38.645Z,244
2018-02-18T06:48:38.718Z,252
2018-02-18T06:49:38.660Z,268
2018-02-18T06:50:38.417Z,280
2018-02-18T06:51:38.692Z,292
2018-02-18T06:52:38.700Z,300
2018-02-18T06:53:38.462Z,316
2018-02-18T06:54:38.736Z,328
2018-02-18T06:56:38.759Z,352
2018-02-18T06:57:38.516Z,360
2018-02-18T06:58:53.455Z,372
2018-02-18T06:59:53.472Z,384
2018-02-18T07:00:38.818Z,392
2018-02-18T07:01:38.836Z,404
2018-02-18T07:02:38.844Z,416
2018-02-18T07:03:38.644Z,428
2018-02-18T07:04:38.881Z,440
2018-02-18T07:05:38.892Z,452
2018-02-18T07:06:38.705Z,464
2018-02-18T07:07:38.922Z,476
2018-02-18T07:08:38.961Z,484
2018-02-18T07:09:38.950Z,492
2018-02-18T07:10:38.968Z,504
2018-02-18T07:11:38.973Z,512
2018-02-18T07:12:38.992Z,516
2018-02-18T07:13:53.677Z,524
2018-02-18T07:15:39.036Z,548
2018-02-18T07:16:39.049Z,560
2018-02-18T07:17:39.167Z,576
2018-02-18T07:19:39.094Z,604
2018-02-18T07:20:39.108Z,620
2018-02-18T07:21:39.125Z,632
2018-02-18T07:22:39.232Z,648
2018-02-18T07:23:39.153Z,668
2018-02-18T07:24:39.164Z,688
2018-02-18T07:25:39.177Z,712
2018-02-18T07:26:39.193Z,728
2018-02-18T07:27:38.962Z,744
2018-02-18T07:28:39.221Z,756
2018-02-18T07:29:39.240Z,764
2018-02-18T07:30:53.920Z,776
2018-02-18T07:31:53.679Z,788
2018-02-18T07:32:39.025Z,800
2018-02-18T07:33:39.296Z,820
2018-02-18T07:34:39.054Z,840
2018-02-18T07:35:39.329Z,860
2018-02-18T07:36:39.339Z,876
2018-02-18T07:37:39.356Z,892
2018-02-18T07:38:39.120Z,904
2018-02-18T07:39:39.379Z,920
2018-02-18T07:40:39.141Z,932
2018-02-18T07:41:39.418Z,952
2018-02-18T07:42:39.423Z,964
2018-02-18T07:43:39.443Z,980
2018-02-18T07:44:39.454Z,992
2018-02-18T07:45:54.144Z,1020
2018-02-18T07:46:54.150Z,1036
2018-02-18T07:47:39.255Z,1052
2018-02-18T07:48:39.518Z,1072
2018-02-18T07:49:39.540Z,1092
2018-02-18T07:50:39.548Z,1108
2018-02-18T07:51:39.555Z,1124
2018-02-18T07:52:54.250Z,1144
2018-02-18T07:53:39.331Z,1160
2018-02-18T07:54:39.343Z,1168
2018-02-18T07:55:39.616Z,1176
2018-02-18T07:56:39.634Z,1180
2018-02-18T07:57:39.646Z,1180
2018-02-18T07:58:39.663Z,1188
2018-02-18T07:59:39.674Z,1196
2018-02-18T08:00:39.694Z,1208
2018-02-18T08:01:39.715Z,1212
2018-02-18T08:02:54.386Z,1224
2018-02-18T08:04:39.751Z,1240
2018-02-18T08:05:39.251Z,1248
2018-02-18T08:06:39.878Z,1256
2018-02-18T08:07:39.796Z,1272
2018-02-18T08:08:39.815Z,1276
2018-02-18T08:09:54.486Z,1292
2018-02-18T08:10:39.585Z,1308
2018-02-18T08:11:39.868Z,1324
2018-02-18T08:12:39.984Z,1344
2018-02-18T08:13:39.884Z,1364
2018-02-18T08:16:39.676Z,1408
2018-02-18T08:17:39.939Z,1432
2018-02-18T08:18:54.632Z,1468
2018-02-18T08:19:54.650Z,1492
2018-02-18T08:20:39.994Z,1508
2018-02-18T08:21:39.748Z,1524
2018-02-18T08:22:40.012Z,1548
2018-02-18T08:23:54.695Z,1580
2018-02-18T08:24:39.796Z,1600
2018-02-18T08:25:39.807Z,1620
2018-02-18T08:27:39.839Z,1660
2018-02-18T08:28:40.110Z,1684
2018-02-18T08:29:40.123Z,1712
2018-02-18T08:30:40.139Z,1732
2018-02-18T08:31:54.821Z,1752
2018-02-18T08:32:40.169Z,1760
2018-02-18T08:33:54.594Z,1776
2018-02-18T08:34:39.948Z,1792
2018-02-18T08:35:40.212Z,1812
2018-02-18T08:36:39.975Z,1828
2018-02-18T08:37:40.243Z,1844
2018-02-18T08:38:39.746Z,1860
2018-02-18T08:39:40.029Z,1876
2018-02-18T08:40:54.947Z,1896
2018-02-18T08:41:40.300Z,1904
2018-02-18T08:43:40.327Z,1932
2018-02-18T08:44:40.347Z,1944
2018-02-18T08:45:40.372Z,1952
2018-02-18T08:46:40.379Z,1960
2018-02-18T08:47:40.388Z,1968
2018-02-18T08:48:40.454Z,1992
2018-02-18T08:49:55.089Z,2024
2018-02-18T08:50:40.449Z,2044
2018-02-18T08:51:40.459Z,2064
2018-02-18T08:52:40.213Z,2084
2018-02-18T08:53:40.485Z,2096
2018-02-18T08:54:40.499Z,2104
2018-02-18T08:55:40.514Z,2108
2018-02-18T08:56:40.530Z,2116
2018-02-18T08:57:40.293Z,2124
2018-02-18T08:58:40.554Z,2136
2018-02-18T08:59:40.573Z,2148
2018-02-18T09:00:40.587Z,2152
2018-02-18T09:01:40.602Z,2156
2018-02-18T09:02:55.291Z,2140
2018-02-18T09:04:40.396Z,2108
2018-02-18T09:05:55.328Z,2108
2018-02-18T09:06:40.420Z,2112
2018-02-18T09:07:40.438Z,2140
2018-02-18T09:08:39.939Z,2168
2018-02-18T09:09:40.730Z,2188
2018-02-18T09:10:40.742Z,2208
2018-02-18T09:11:40.757Z,2232
2018-02-18T09:13:40.785Z,2276
2018-02-18T09:14:40.809Z,2304
2018-02-18T09:15:40.819Z,2332
2018-02-18T09:16:40.835Z,2364
2018-02-18T09:17:40.850Z,2416
2018-02-18T09:18:40.860Z,2476
2018-02-18T09:19:40.880Z,2556
2018-02-18T09:20:40.904Z,2648
2018-02-18T09:21:55.574Z,2800
2018-02-18T09:22:55.589Z,2932
2018-02-18T09:23:40.938Z,3032
2018-02-18T09:24:40.958Z,3164
2018-02-18T09:25:40.967Z,3288
2018-02-18T09:26:40.984Z,3424
2018-02-18T09:27:40.996Z,3556
2018-02-18T09:28:41.017Z,3680
2018-02-18T09:29:41.030Z,3792
2018-02-18T09:30:41.047Z,3904
2018-02-18T09:31:41.068Z,4008
2018-02-18T09:32:55.754Z,4120
2018-02-18T09:33:40.839Z,4188
2018-02-18T09:34:41.242Z,4264
2018-02-18T09:35:41.127Z,4344
2018-02-18T09:36:41.178Z,4420
2018-02-18T09:38:55.836Z,4592
2018-02-18T09:39:40.678Z,4644
2018-02-18T09:40:41.362Z,4720
2018-02-18T09:41:41.217Z,4780
2018-02-18T09:42:41.231Z,4836
2018-02-18T09:43:40.990Z,4888
2018-02-18T09:44:41.262Z,4928
2018-02-18T09:45:41.025Z,4964
2018-02-18T09:46:41.298Z,4992
2018-02-18T09:47:41.053Z,5028
2018-02-18T09:48:41.318Z,5060
2018-02-18T09:49:41.336Z,5092
2018-02-18T09:50:41.361Z,5116
2018-02-18T09:51:41.374Z,5140
2018-02-18T09:52:56.057Z,5160
2018-02-18T09:53:56.074Z,5172
2018-02-18T09:54:56.084Z,5192
2018-02-18T09:55:41.440Z,5196
2018-02-18T09:56:41.451Z,5208
2018-02-18T09:57:41.478Z,5196
2018-02-18T09:58:41.232Z,5188
2018-02-18T09:59:41.249Z,5176
2018-02-18T10:00:41.585Z,5152
2018-02-18T10:01:41.282Z,5124
2018-02-18T10:02:41.563Z,5124
2018-02-18T10:03:41.573Z,5136
2018-02-18T10:04:41.604Z,5184
2018-02-18T10:05:41.600Z,5244
2018-02-18T10:07:41.635Z,5392
2018-02-18T10:08:56.322Z,5488
2018-02-18T10:09:56.076Z,5584
2018-02-18T10:10:56.089Z,5672
2018-02-18T10:11:41.709Z,5740
2018-02-18T10:12:41.717Z,5820
2018-02-18T10:13:41.726Z,5868
2018-02-18T10:14:41.744Z,5888
2018-02-18T10:15:41.508Z,5880
2018-02-18T10:16:41.777Z,5848
2018-02-18T10:17:41.795Z,5824
2018-02-18T10:18:41.817Z,5820
2018-02-18T10:19:41.833Z,5832
2018-02-18T10:20:56.516Z,5848
2018-02-18T10:22:41.877Z,5860
2018-02-18T10:23:41.637Z,5880
2018-02-18T10:24:56.583Z,5908
2018-02-18T10:25:41.933Z,5912
2018-02-18T10:26:41.945Z,5900
2018-02-18T10:27:56.628Z,5864
2018-02-18T10:28:41.984Z,5832
2018-02-18T10:29:41.996Z,5808
2018-02-18T10:30:41.765Z,5788
2018-02-18T10:31:42.035Z,5772
2018-02-18T10:32:42.045Z,5744
2018-02-18T10:33:42.066Z,5700
2018-02-18T10:34:42.081Z,5652
2018-02-18T10:36:56.529Z,5584
2018-02-18T10:37:42.137Z,5572
2018-02-18T10:38:56.816Z,5544
2018-02-18T10:39:42.165Z,5548
2018-02-18T10:40:56.848Z,5568
2018-02-18T10:41:56.864Z,5584
2018-02-18T10:42:56.879Z,5604
2018-02-18T10:43:56.893Z,5624
2018-02-18T10:44:42.241Z,5612
2018-02-18T10:45:42.263Z,5564
2018-02-18T10:46:42.025Z,5472
2018-02-18T10:47:42.308Z,5352
2018-02-18T10:48:42.317Z,5240
2018-02-18T10:49:42.329Z,5144
2018-02-18T10:50:42.344Z,5084
2018-02-18T10:51:42.365Z,5028
2018-02-18T10:52:42.393Z,4960
2018-02-18T10:53:42.145Z,4884
2018-02-18T10:55:42.175Z,4748
2018-02-18T10:56:57.116Z,4688
2018-02-18T10:57:56.887Z,4624
2018-02-18T10:58:42.229Z,4572
2018-02-18T10:59:57.178Z,4492
2018-02-18T11:00:42.262Z,4436
2018-02-18T11:01:42.279Z,4364
2018-02-18T11:02:42.551Z,4296
2018-02-18T11:03:42.574Z,4236
2018-02-18T11:04:42.584Z,4172
2018-02-18T11:05:42.600Z,4092
2018-02-18T11:06:42.620Z,4004
2018-02-18T11:07:42.380Z,3928
2018-02-18T11:08:42.395Z,3856
2018-02-18T11:09:42.418Z,3800
2018-02-18T11:10:42.432Z,3764
2018-02-18T11:11:42.704Z,3736
2018-02-18T11:12:57.387Z,3732
2018-02-18T11:13:42.477Z,3736
2018-02-18T11:15:42.772Z,3752
2018-02-18T11:16:42.785Z,3760
2018-02-18T11:17:57.484Z,3784
2018-02-18T11:18:42.564Z,3796
2018-02-18T11:20:42.596Z,3836
2018-02-18T11:21:42.878Z,3860
2018-02-18T11:23:42.902Z,3908
2018-02-18T11:24:42.670Z,3940
2018-02-18T11:26:42.973Z,3984
2018-02-18T11:27:42.965Z,3996
2018-02-18T11:29:43.002Z,3996
2018-02-18T11:30:43.023Z,3996
2018-02-18T11:31:43.042Z,4004
2018-02-18T11:32:42.799Z,4008
2018-02-18T11:33:42.815Z,4000
2018-02-18T11:34:43.088Z,3992
2018-02-18T11:35:43.108Z,3996
2018-02-18T11:37:43.137Z,4040
2018-02-18T11:38:43.152Z,4056
2018-02-18T11:39:43.173Z,4064
2018-02-18T11:40:43.190Z,4056
2018-02-18T11:41:43.306Z,4052
2018-02-18T11:42:57.891Z,4044
2018-02-18T11:43:57.647Z,4032
2018-02-18T11:44:43.261Z,4020
2018-02-18T11:45:57.683Z,3996
2018-02-18T11:46:43.338Z,3980
2018-02-18T11:47:43.317Z,3948
2018-02-18T11:48:43.074Z,3904
2018-02-18T11:49:43.342Z,3880
2018-02-18T11:50:43.357Z,3848
2018-02-18T11:51:43.371Z,3816
2018-02-18T11:52:43.439Z,3780
2018-02-18T11:53:43.151Z,3736
2018-02-18T11:54:43.433Z,3680
2018-02-18T11:55:43.437Z,3628
2018-02-18T11:56:58.129Z,3556
2018-02-18T11:57:43.573Z,3508
2018-02-18T11:58:57.909Z,3468
2018-02-18T11:59:43.254Z,3468
2018-02-18T12:00:58.195Z,3472
2018-02-18T12:01:58.209Z,3468
2018-02-18T12:02:43.560Z,3468
2018-02-18T12:03:43.573Z,3472
2018-02-18T12:04:58.271Z,3492
2018-02-18T12:05:43.613Z,3504
2018-02-18T12:06:43.628Z,3516
2018-02-18T12:07:43.646Z,3512
2018-02-18T12:08:43.659Z,3504
2018-02-18T12:09:43.677Z,3476
2018-02-18T12:10:58.528Z,3456
2018-02-18T12:11:43.714Z,3460
2018-02-18T12:12:43.469Z,3476
2018-02-18T12:13:43.747Z,3492
2018-02-18T12:14:43.760Z,3488
2018-02-18T12:15:58.445Z,3492
2018-02-18T12:16:43.801Z,3532
2018-02-18T12:17:58.479Z,3656
2018-02-18T12:18:43.832Z,3752
2018-02-18T12:19:58.510Z,3872
2018-02-18T12:20:43.861Z,3964
2018-02-18T12:21:44.034Z,4096
2018-02-18T12:22:43.892Z,4188
2018-02-18T12:23:43.657Z,4208
2018-02-18T12:24:43.935Z,4176
2018-02-18T12:25:43.946Z,4112
2018-02-18T12:26:43.969Z,4100
2018-02-18T12:28:43.742Z,4108
2018-02-18T12:29:44.011Z,4112
2018-02-18T12:30:44.030Z,4156
2018-02-18T12:31:58.721Z,4168
2018-02-18T12:32:44.070Z,4208
2018-02-18T12:33:44.081Z,4268
2018-02-18T12:34:43.840Z,4268
2018-02-18T12:35:44.150Z,4236
2018-02-18T12:36:43.884Z,4228
2018-02-18T12:37:44.148Z,4224
2018-02-18T12:38:44.173Z,4188
2018-02-18T12:39:44.026Z,4128
2018-02-18T12:40:44.200Z,4096
2018-02-18T12:41:44.214Z,4080
2018-02-18T12:42:44.232Z,3940
2018-02-18T12:44:58.984Z,3512
2018-02-18T12:45:44.287Z,3464
2018-02-18T12:46:44.043Z,3476
2018-02-18T12:47:58.984Z,3500
2018-02-18T12:48:44.335Z,3488
2018-02-18T12:49:59.018Z,3364
2018-02-18T12:50:44.473Z,3304
2018-02-18T12:51:44.389Z,3264
2018-02-18T12:52:43.888Z,3272
2018-02-18T12:53:44.168Z,3288
2018-02-18T12:54:44.013Z,3296
2018-02-18T12:55:44.456Z,3280
2018-02-18T12:56:44.465Z,3228
2018-02-18T12:57:44.147Z,3172
2018-02-18T12:58:44.503Z,3124
2018-02-18T13:00:59.211Z,3032
2018-02-18T13:01:44.552Z,3012
2018-02-18T13:02:44.318Z,2996
2018-02-18T13:03:59.254Z,2968
2018-02-18T13:04:44.614Z,2956
2018-02-18T13:05:59.032Z,2940
2018-02-18T13:06:44.639Z,2940
2018-02-18T13:07:44.400Z,2940
2018-02-18T13:08:44.672Z,2932
2018-02-18T13:09:44.701Z,2912
2018-02-18T13:10:44.711Z,2880
2018-02-18T13:11:44.731Z,2856
2018-02-18T13:12:44.736Z,2848
2018-02-18T13:13:44.759Z,2844
2018-02-18T13:14:44.775Z,2840
2018-02-18T13:15:44.793Z,2836
2018-02-18T13:16:59.487Z,2840
2018-02-18T13:17:44.831Z,2840
2018-02-18T13:18:59.508Z,2824
2018-02-18T13:19:44.866Z,2820
2018-02-18T13:20:44.617Z,2844
2018-02-18T13:21:44.893Z,2864
2018-02-18T13:22:44.908Z,2864
2018-02-18T13:23:44.933Z,2868
2018-02-18T13:24:44.944Z,2888
2018-02-18T13:25:44.446Z,2896
2018-02-18T13:26:44.972Z,2892
2018-02-18T13:27:44.992Z,2888
2018-02-18T13:28:45.006Z,2960
2018-02-18T13:29:45.031Z,3000
2018-02-18T13:30:44.788Z,2972
2018-02-18T13:31:45.061Z,2896
2018-02-18T13:32:45.247Z,2844
2018-02-18T13:33:45.094Z,2832
2018-02-18T13:34:59.776Z,2828
2018-02-18T13:35:59.537Z,2792
2018-02-18T13:36:44.888Z,2780
2018-02-18T13:37:45.204Z,2804
2018-02-18T13:38:45.171Z,2872
2018-02-18T13:39:45.190Z,2876
2018-02-18T13:40:59.983Z,2776
2018-02-18T13:41:45.223Z,2700
2018-02-18T13:42:45.239Z,2640
2018-02-18T13:43:45.002Z,2592
2018-02-18T13:44:45.279Z,2560
2018-02-18T13:45:45.300Z,2544
2018-02-18T13:46:45.413Z,2540
2018-02-18T13:47:45.326Z,2552
2018-02-18T13:48:45.343Z,2564
2018-02-18T13:49:45.103Z,2608
2018-02-18T13:50:59.788Z,2656
2018-02-18T13:51:45.143Z,2664
2018-02-18T13:52:45.412Z,2640
2018-02-18T13:53:45.172Z,2600
2018-02-18T13:54:45.438Z,2544
2018-02-18T13:55:45.477Z,2480
2018-02-18T13:56:45.480Z,2392
2018-02-18T13:57:45.491Z,2332
2018-02-18T13:58:45.518Z,2316
2018-02-18T13:59:45.024Z,2348
2018-02-18T14:00:45.545Z,2396
2018-02-18T14:01:45.564Z,2432
2018-02-18T14:02:45.319Z,2432
2018-02-18T14:04:45.613Z,2512
2018-02-18T14:05:45.624Z,2556
2018-02-18T14:07:00.316Z,2548
2018-02-18T14:07:45.773Z,2552
2018-02-18T14:08:45.682Z,2544
2018-02-18T14:10:45.715Z,2448
2018-02-18T14:11:45.724Z,2392
2018-02-18T14:12:45.748Z,2348
2018-02-18T14:13:45.759Z,2300
2018-02-18T14:14:45.523Z,2256
2018-02-18T14:15:45.539Z,2216
2018-02-18T14:16:45.809Z,2188
2018-02-18T14:17:45.318Z,2168
2018-02-18T14:18:45.851Z,2152
2018-02-18T14:19:45.910Z,2132
2018-02-18T14:20:45.873Z,2100
2018-02-18T14:21:45.891Z,2056
2018-02-18T14:23:00.321Z,2008
2018-02-18T14:23:45.672Z,1992
2018-02-18T14:25:00.613Z,1968
2018-02-18T14:25:45.963Z,1964
2018-02-18T14:26:45.980Z,1948
2018-02-18T14:27:45.993Z,1908
2018-02-18T14:28:46.009Z,1896
2018-02-18T14:29:46.031Z,1908
2018-02-18T14:30:46.056Z,1936
2018-02-18T14:31:46.057Z,1976
2018-02-18T14:33:00.750Z,2028
2018-02-18T14:33:46.090Z,2048
2018-02-18T14:34:46.156Z,2068
2018-02-18T14:35:46.124Z,2076
2018-02-18T14:36:46.240Z,2076
2018-02-18T14:37:46.161Z,2040
2018-02-18T14:39:00.586Z,2012
2018-02-18T14:40:00.860Z,1988
2018-02-18T14:40:46.206Z,1956
2018-02-18T14:42:46.248Z,1908
2018-02-18T14:43:46.258Z,1880
2018-02-18T14:44:46.316Z,1852
2018-02-18T14:45:46.293Z,1828
2018-02-18T14:46:45.796Z,1816
2018-02-18T14:47:46.331Z,1780
2018-02-18T14:48:46.344Z,1744
2018-02-18T14:49:46.360Z,1712
2018-02-18T14:50:46.382Z,1672
2018-02-18T14:51:46.400Z,1628
2018-02-18T14:52:46.410Z,1584